sensor_id;sensor_type;location;lat;lon;timestamp;pressure;altitude;pressure_sealevel;temperature;humidity
28588;BME280;15787;49.662;10.162;2024-01-11T00:00:22;100346.72;;;-5.87;84.58
28588;BME280;15787;49.662;10.162;2024-01-11T00:02:54;100348.28;;;-6.23;85.42
28588;BME280;15787;49.662;10.162;2024-01-11T00:05:28;100331.75;;;-5.65;86.09
28588;BME280;15787;49.662;10.162;2024-01-11T00:08:02;100343.25;;;-6.11;84.86
28588;BME280;15787;49.662;10.162;2024-01-11T00:10:35;100336.06;;;-6.02;86.27
28588;BME280;15787;49.662;10.162;2024-01-11T00:13:08;100343.06;;;-5.58;85.72
28588;BME280;15787;49.662;10.162;2024-01-11T00:15:41;100344.53;;;-5.85;84.91
28588;BME280;15787;49.662;10.162;2024-01-11T00:18:14;100344.59;;;-5.71;84.74
28588;BME280;15787;49.662;10.162;2024-01-11T00:20:48;100346.75;;;-5.68;84.05
28588;BME280;15787;49.662;10.162;2024-01-11T00:23:21;100346.22;;;-5.70;84.11
28588;BME280;15787;49.662;10.162;2024-01-11T00:25:54;100339.84;;;-5.60;84.20
28588;BME280;15787;49.662;10.162;2024-01-11T00:28:27;100344.53;;;-5.85;84.20
28588;BME280;15787;49.662;10.162;2024-01-11T00:31:01;100344.25;;;-5.64;84.47
28588;BME280;15787;49.662;10.162;2024-01-11T00:33:33;100348.13;;;-5.70;83.70
28588;BME280;15787;49.662;10.162;2024-01-11T00:36:08;100346.59;;;-5.95;83.88
28588;BME280;15787;49.662;10.162;2024-01-11T00:38:41;100362.22;;;-6.06;84.45
28588;BME280;15787;49.662;10.162;2024-01-11T00:41:14;100347.91;;;-6.16;85.10
28588;BME280;15787;49.662;10.162;2024-01-11T00:43:47;100363.03;;;-6.05;85.81
28588;BME280;15787;49.662;10.162;2024-01-11T00:46:20;100364.31;;;-5.98;86.70
28588;BME280;15787;49.662;10.162;2024-01-11T00:48:52;100366.88;;;-6.35;87.20
28588;BME280;15787;49.662;10.162;2024-01-11T00:51:29;100369.78;;;-6.03;87.59
28588;BME280;15787;49.662;10.162;2024-01-11T00:54:02;100369.78;;;-5.84;87.72
28588;BME280;15787;49.662;10.162;2024-01-11T00:56:34;100365.03;;;-5.73;87.04
28588;BME280;15787;49.662;10.162;2024-01-11T00:59:07;100365.09;;;-6.21;87.14
28588;BME280;15787;49.662;10.162;2024-01-11T01:01:46;100373.41;;;-5.89;86.61
28588;BME280;15787;49.662;10.162;2024-01-11T01:04:19;100362.03;;;-6.14;85.92
28588;BME280;15787;49.662;10.162;2024-01-11T01:06:53;100359.34;;;-5.77;86.10
28588;BME280;15787;49.662;10.162;2024-01-11T01:09:26;100363.59;;;-6.32;86.03
28588;BME280;15787;49.662;10.162;2024-01-11T01:11:59;100365.81;;;-6.10;86.08
28588;BME280;15787;49.662;10.162;2024-01-11T01:14:32;100361.69;;;-6.08;86.25
28588;BME280;15787;49.662;10.162;2024-01-11T01:17:05;100362.84;;;-6.14;85.73
28588;BME280;15787;49.662;10.162;2024-01-11T01:19:38;100355.72;;;-5.86;86.10
28588;BME280;15787;49.662;10.162;2024-01-11T01:22:12;100349.75;;;-5.88;85.52
28588;BME280;15787;49.662;10.162;2024-01-11T01:24:45;100361.22;;;-6.15;84.93
28588;BME280;15787;49.662;10.162;2024-01-11T01:27:18;100361.66;;;-6.55;86.39
28588;BME280;15787;49.662;10.162;2024-01-11T01:29:51;100368.88;;;-7.03;86.73
28588;BME280;15787;49.662;10.162;2024-01-11T01:32:24;100366.31;;;-6.08;86.93
28588;BME280;15787;49.662;10.162;2024-01-11T01:34:57;100366.41;;;-5.95;86.36
28588;BME280;15787;49.662;10.162;2024-01-11T01:37:31;100374.25;;;-6.12;85.72
28588;BME280;15787;49.662;10.162;2024-01-11T01:40:05;100370.09;;;-6.33;85.90
28588;BME280;15787;49.662;10.162;2024-01-11T01:42:42;100376.06;;;-6.88;85.54
28588;BME280;15787;49.662;10.162;2024-01-11T01:45:15;100378.69;;;-6.21;86.49
28588;BME280;15787;49.662;10.162;2024-01-11T01:47:48;100381.38;;;-6.45;85.66
28588;BME280;15787;49.662;10.162;2024-01-11T01:50:21;100373.63;;;-6.56;85.60
28588;BME280;15787;49.662;10.162;2024-01-11T01:52:56;100373.56;;;-6.51;85.76
28588;BME280;15787;49.662;10.162;2024-01-11T01:55:30;100364.88;;;-6.24;85.46
28588;BME280;15787;49.662;10.162;2024-01-11T01:58:03;100369.03;;;-6.61;85.18
28588;BME280;15787;49.662;10.162;2024-01-11T02:00:36;100363.28;;;-6.54;85.94
28588;BME280;15787;49.662;10.162;2024-01-11T02:03:10;100367.91;;;-6.88;85.93
28588;BME280;15787;49.662;10.162;2024-01-11T02:05:43;100374.50;;;-6.37;86.18
28588;BME280;15787;49.662;10.162;2024-01-11T02:08:20;100377.53;;;-6.15;85.82
28588;BME280;15787;49.662;10.162;2024-01-11T02:10:54;100369.16;;;-6.18;85.20
28588;BME280;15787;49.662;10.162;2024-01-11T02:13:27;100370.09;;;-6.28;85.34
28588;BME280;15787;49.662;10.162;2024-01-11T02:16:00;100373.84;;;-6.24;84.99
28588;BME280;15787;49.662;10.162;2024-01-11T02:18:33;100379.59;;;-6.88;85.56
28588;BME280;15787;49.662;10.162;2024-01-11T02:21:08;100362.66;;;-6.22;85.60
28588;BME280;15787;49.662;10.162;2024-01-11T02:23:44;100369.63;;;-6.11;84.83
28588;BME280;15787;49.662;10.162;2024-01-11T02:26:20;100374.13;;;-6.25;84.75
28588;BME280;15787;49.662;10.162;2024-01-11T02:28:54;100376.84;;;-6.25;84.51
28588;BME280;15787;49.662;10.162;2024-01-11T02:31:27;100372.31;;;-6.35;84.04
28588;BME280;15787;49.662;10.162;2024-01-11T02:34:00;100370.25;;;-6.48;84.20
28588;BME280;15787;49.662;10.162;2024-01-11T02:36:32;100369.53;;;-6.54;84.66
28588;BME280;15787;49.662;10.162;2024-01-11T02:39:06;100369.38;;;-6.38;84.49
28588;BME280;15787;49.662;10.162;2024-01-11T02:41:40;100372.00;;;-6.57;85.37
28588;BME280;15787;49.662;10.162;2024-01-11T02:44:14;100362.66;;;-6.75;85.38
28588;BME280;15787;49.662;10.162;2024-01-11T02:46:46;100373.19;;;-6.68;85.89
28588;BME280;15787;49.662;10.162;2024-01-11T02:49:19;100366.66;;;-6.67;86.13
28588;BME280;15787;49.662;10.162;2024-01-11T02:51:52;100366.91;;;-6.64;85.89
28588;BME280;15787;49.662;10.162;2024-01-11T02:54:25;100364.00;;;-7.06;85.87
28588;BME280;15787;49.662;10.162;2024-01-11T02:56:59;100367.31;;;-7.53;85.75
28588;BME280;15787;49.662;10.162;2024-01-11T02:59:32;100369.78;;;-7.18;86.41
28588;BME280;15787;49.662;10.162;2024-01-11T03:02:05;100373.44;;;-6.65;85.94
28588;BME280;15787;49.662;10.162;2024-01-11T03:04:38;100361.69;;;-6.60;85.47
28588;BME280;15787;49.662;10.162;2024-01-11T03:07:11;100359.13;;;-6.47;85.04
28588;BME280;15787;49.662;10.162;2024-01-11T03:09:44;100353.75;;;-6.52;84.29
28588;BME280;15787;49.662;10.162;2024-01-11T03:12:18;100356.88;;;-6.68;83.91
28588;BME280;15787;49.662;10.162;2024-01-11T03:14:51;100358.66;;;-6.54;83.87
28588;BME280;15787;49.662;10.162;2024-01-11T03:17:24;100358.66;;;-6.54;83.49
28588;BME280;15787;49.662;10.162;2024-01-11T03:19:57;100357.19;;;-6.70;83.69
28588;BME280;15787;49.662;10.162;2024-01-11T03:22:31;100355.28;;;-7.03;84.00
28588;BME280;15787;49.662;10.162;2024-01-11T03:25:05;100353.56;;;-6.94;83.95
28588;BME280;15787;49.662;10.162;2024-01-11T03:27:39;100343.22;;;-6.87;84.63
28588;BME280;15787;49.662;10.162;2024-01-11T03:30:12;100355.31;;;-7.47;84.19
28588;BME280;15787;49.662;10.162;2024-01-11T03:32:48;100349.50;;;-8.28;84.90
28588;BME280;15787;49.662;10.162;2024-01-11T03:35:21;100348.72;;;-8.33;86.03
28588;BME280;15787;49.662;10.162;2024-01-11T03:37:54;100339.94;;;-7.56;87.30
28588;BME280;15787;49.662;10.162;2024-01-11T03:40:27;100338.22;;;-7.47;86.29
28588;BME280;15787;49.662;10.162;2024-01-11T03:43:01;100341.03;;;-7.19;86.69
28588;BME280;15787;49.662;10.162;2024-01-11T03:45:33;100342.41;;;-7.21;85.52
28588;BME280;15787;49.662;10.162;2024-01-11T03:48:06;100341.56;;;-7.22;85.80
28588;BME280;15787;49.662;10.162;2024-01-11T03:50:39;100341.50;;;-7.12;85.77
28588;BME280;15787;49.662;10.162;2024-01-11T03:53:12;100351.91;;;-7.24;84.99
28588;BME280;15787;49.662;10.162;2024-01-11T03:55:45;100349.69;;;-7.55;85.13
28588;BME280;15787;49.662;10.162;2024-01-11T03:58:20;100340.50;;;-7.21;85.62
28588;BME280;15787;49.662;10.162;2024-01-11T04:00:52;100350.28;;;-8.22;85.70
28588;BME280;15787;49.662;10.162;2024-01-11T04:03:25;100347.84;;;-8.19;86.89
28588;BME280;15787;49.662;10.162;2024-01-11T04:05:58;100337.75;;;-8.13;87.04
28588;BME280;15787;49.662;10.162;2024-01-11T04:08:31;100347.78;;;-7.55;87.36
28588;BME280;15787;49.662;10.162;2024-01-11T04:11:04;100347.97;;;-7.02;86.81
28588;BME280;15787;49.662;10.162;2024-01-11T04:13:39;100354.91;;;-6.86;85.72
28588;BME280;15787;49.662;10.162;2024-01-11T04:16:12;100350.59;;;-6.92;85.32
28588;BME280;15787;49.662;10.162;2024-01-11T04:18:45;100355.31;;;-7.47;84.62
28588;BME280;15787;49.662;10.162;2024-01-11T04:21:22;100359.75;;;-7.17;84.37
28588;BME280;15787;49.662;10.162;2024-01-11T04:23:55;100365.53;;;-6.95;84.57
28588;BME280;15787;49.662;10.162;2024-01-11T04:26:28;100374.50;;;-7.33;84.10
28588;BME280;15787;49.662;10.162;2024-01-11T04:29:03;100373.91;;;-7.25;84.04
28588;BME280;15787;49.662;10.162;2024-01-11T04:31:36;100369.66;;;-7.41;84.26
28588;BME280;15787;49.662;10.162;2024-01-11T04:34:09;100375.44;;;-7.14;84.15
28588;BME280;15787;49.662;10.162;2024-01-11T04:36:42;100376.13;;;-6.93;83.83
28588;BME280;15787;49.662;10.162;2024-01-11T04:39:15;100372.31;;;-6.92;83.31
28588;BME280;15787;49.662;10.162;2024-01-11T04:41:48;100374.25;;;-6.98;82.83
28588;BME280;15787;49.662;10.162;2024-01-11T04:44:22;100384.63;;;-7.05;81.87
28588;BME280;15787;49.662;10.162;2024-01-11T04:46:58;100376.75;;;-7.07;81.91
28588;BME280;15787;49.662;10.162;2024-01-11T04:49:31;100378.72;;;-7.12;81.90
28588;BME280;15787;49.662;10.162;2024-01-11T04:52:04;100373.25;;;-7.51;82.80
28588;BME280;15787;49.662;10.162;2024-01-11T04:54:37;100381.53;;;-8.50;84.36
28588;BME280;15787;49.662;10.162;2024-01-11T04:57:10;100369.91;;;-8.66;85.81
28588;BME280;15787;49.662;10.162;2024-01-11T04:59:44;100360.50;;;-8.04;87.17
28588;BME280;15787;49.662;10.162;2024-01-11T05:02:17;100363.38;;;-8.40;87.79
28588;BME280;15787;49.662;10.162;2024-01-11T05:04:50;100363.50;;;-8.01;87.92
28588;BME280;15787;49.662;10.162;2024-01-11T05:07:23;100369.78;;;-8.20;87.78
28588;BME280;15787;49.662;10.162;2024-01-11T05:09:56;100361.78;;;-8.56;88.58
28588;BME280;15787;49.662;10.162;2024-01-11T05:12:29;100357.75;;;-8.78;89.10
28588;BME280;15787;49.662;10.162;2024-01-11T05:15:04;100366.66;;;-8.53;90.25
28588;BME280;15787;49.662;10.162;2024-01-11T05:17:37;100370.16;;;-7.78;90.17
28588;BME280;15787;49.662;10.162;2024-01-11T05:20:11;100359.19;;;-7.53;89.67
28588;BME280;15787;49.662;10.162;2024-01-11T05:22:44;100355.19;;;-7.65;89.34
28588;BME280;15787;49.662;10.162;2024-01-11T05:25:16;100352.66;;;-8.01;88.71
28588;BME280;15787;49.662;10.162;2024-01-11T05:27:49;100359.53;;;-8.28;89.43
28588;BME280;15787;49.662;10.162;2024-01-11T05:30:23;100362.75;;;-8.21;89.30
28588;BME280;15787;49.662;10.162;2024-01-11T05:33:00;100362.06;;;-7.88;89.08
28588;BME280;15787;49.662;10.162;2024-01-11T05:35:33;100367.50;;;-7.44;88.37
28588;BME280;15787;49.662;10.162;2024-01-11T05:38:06;100364.31;;;-7.51;87.33
28588;BME280;15787;49.662;10.162;2024-01-11T05:40:39;100365.53;;;-7.78;87.71
28588;BME280;15787;49.662;10.162;2024-01-11T05:43:13;100367.31;;;-7.53;86.98
28588;BME280;15787;49.662;10.162;2024-01-11T05:45:47;100358.97;;;-7.66;86.11
28588;BME280;15787;49.662;10.162;2024-01-11T05:48:19;100358.34;;;-7.53;86.36
28588;BME280;15787;49.662;10.162;2024-01-11T05:50:52;100360.53;;;-7.17;85.98
28588;BME280;15787;49.662;10.162;2024-01-11T05:53:25;100378.31;;;-7.83;85.40
28588;BME280;15787;49.662;10.162;2024-01-11T05:55:59;100387.31;;;-7.44;84.88
28588;BME280;15787;49.662;10.162;2024-01-11T05:58:32;100387.66;;;-7.12;84.29
28588;BME280;15787;49.662;10.162;2024-01-11T06:01:06;100401.50;;;-7.13;83.75
28588;BME280;15787;49.662;10.162;2024-01-11T06:03:39;100409.72;;;-7.23;82.57
28588;BME280;15787;49.662;10.162;2024-01-11T06:06:12;100413.59;;;-7.39;81.84
28588;BME280;15787;49.662;10.162;2024-01-11T06:08:45;100406.56;;;-7.40;81.57
28588;BME280;15787;49.662;10.162;2024-01-11T06:11:20;100418.09;;;-7.68;80.77
28588;BME280;15787;49.662;10.162;2024-01-11T06:13:53;100409.78;;;-7.92;81.13
28588;BME280;15787;49.662;10.162;2024-01-11T06:16:27;100418.63;;;-7.66;81.53
28588;BME280;15787;49.662;10.162;2024-01-11T06:19:00;100427.13;;;-7.83;81.30
28588;BME280;15787;49.662;10.162;2024-01-11T06:21:32;100411.00;;;-8.28;81.40
28588;BME280;15787;49.662;10.162;2024-01-11T06:24:05;100415.69;;;-7.80;81.54
28588;BME280;15787;49.662;10.162;2024-01-11T06:26:38;100424.19;;;-8.02;81.70
28588;BME280;15787;49.662;10.162;2024-01-11T06:29:11;100438.75;;;-7.78;82.65
28588;BME280;15787;49.662;10.162;2024-01-11T06:31:46;100432.44;;;-7.58;82.66
28588;BME280;15787;49.662;10.162;2024-01-11T06:34:19;100439.13;;;-7.40;82.28
28588;BME280;15787;49.662;10.162;2024-01-11T06:36:53;100447.81;;;-7.38;82.59
28588;BME280;15787;49.662;10.162;2024-01-11T06:39:26;100450.50;;;-7.38;82.29
28588;BME280;15787;49.662;10.162;2024-01-11T06:41:59;100457.56;;;-7.37;82.56
28588;BME280;15787;49.662;10.162;2024-01-11T06:44:32;100461.41;;;-7.48;83.17
28588;BME280;15787;49.662;10.162;2024-01-11T06:47:06;100465.94;;;-8.13;83.29
28588;BME280;15787;49.662;10.162;2024-01-11T06:49:39;100466.34;;;-7.55;83.59
28588;BME280;15787;49.662;10.162;2024-01-11T06:52:12;100455.41;;;-7.40;83.12
28588;BME280;15787;49.662;10.162;2024-01-11T06:54:45;100467.75;;;-7.68;82.45
28588;BME280;15787;49.662;10.162;2024-01-11T06:57:18;100465.13;;;-7.98;82.28
28588;BME280;15787;49.662;10.162;2024-01-11T06:59:50;100469.28;;;-8.46;82.87
28588;BME280;15787;49.662;10.162;2024-01-11T07:02:25;100467.19;;;-7.70;83.31
28588;BME280;15787;49.662;10.162;2024-01-11T07:04:58;100457.66;;;-7.62;83.19
28588;BME280;15787;49.662;10.162;2024-01-11T07:07:31;100467.69;;;-7.53;82.80
28588;BME280;15787;49.662;10.162;2024-01-11T07:10:05;100462.56;;;-7.64;82.51
28588;BME280;15787;49.662;10.162;2024-01-11T07:12:38;100469.63;;;-7.68;82.29
28588;BME280;15787;49.662;10.162;2024-01-11T07:15:13;100471.50;;;-7.64;82.23
28588;BME280;15787;49.662;10.162;2024-01-11T07:17:47;100468.34;;;-7.86;81.89
28588;BME280;15787;49.662;10.162;2024-01-11T07:20:21;100472.59;;;-7.65;81.60
28588;BME280;15787;49.662;10.162;2024-01-11T07:22:54;100473.09;;;-7.48;81.30
28588;BME280;15787;49.662;10.162;2024-01-11T07:25:26;100469.72;;;-7.89;81.00
28588;BME280;15787;49.662;10.162;2024-01-11T07:27:59;100470.84;;;-8.20;81.67
28588;BME280;15787;49.662;10.162;2024-01-11T07:30:32;100470.53;;;-7.93;82.29
28588;BME280;15787;49.662;10.162;2024-01-11T07:33:06;100486.94;;;-7.59;81.85
28588;BME280;15787;49.662;10.162;2024-01-11T07:35:41;100476.31;;;-8.65;82.68
28588;BME280;15787;49.662;10.162;2024-01-11T07:38:14;100478.09;;;-7.95;83.97
28588;BME280;15787;49.662;10.162;2024-01-11T07:40:47;100481.56;;;-7.70;83.38
28588;BME280;15787;49.662;10.162;2024-01-11T07:43:20;100488.09;;;-7.76;83.58
28588;BME280;15787;49.662;10.162;2024-01-11T07:45:55;100489.25;;;-7.97;83.45
28588;BME280;15787;49.662;10.162;2024-01-11T07:48:30;100494.31;;;-7.75;83.86
28588;BME280;15787;49.662;10.162;2024-01-11T07:51:03;100502.69;;;-7.61;84.32
28588;BME280;15787;49.662;10.162;2024-01-11T07:53:36;100497.75;;;-7.44;84.07
28588;BME280;15787;49.662;10.162;2024-01-11T07:56:09;100502.28;;;-8.04;84.78
28588;BME280;15787;49.662;10.162;2024-01-11T07:58:42;100496.94;;;-7.50;84.66
28588;BME280;15787;49.662;10.162;2024-01-11T08:01:17;100510.47;;;-7.35;83.71
28588;BME280;15787;49.662;10.162;2024-01-11T08:03:51;100501.00;;;-6.93;83.13
28588;BME280;15787;49.662;10.162;2024-01-11T08:06:24;100508.44;;;-7.68;83.94
28588;BME280;15787;49.662;10.162;2024-01-11T08:08:57;100514.78;;;-8.48;84.92
28588;BME280;15787;49.662;10.162;2024-01-11T08:11:30;100506.13;;;-8.45;85.63
28588;BME280;15787;49.662;10.162;2024-01-11T08:14:07;100496.34;;;-8.31;86.15
28588;BME280;15787;49.662;10.162;2024-01-11T08:16:41;100496.63;;;-8.58;87.27
28588;BME280;15787;49.662;10.162;2024-01-11T08:19:15;100494.13;;;-8.04;88.08
28588;BME280;15787;49.662;10.162;2024-01-11T08:21:48;100489.69;;;-7.70;88.38
28588;BME280;15787;49.662;10.162;2024-01-11T08:24:21;100484.66;;;-8.06;88.87
28588;BME280;15787;49.662;10.162;2024-01-11T08:26:54;100475.97;;;-7.93;89.30
28588;BME280;15787;49.662;10.162;2024-01-11T08:29:26;100475.59;;;-7.66;91.01
28588;BME280;15787;49.662;10.162;2024-01-11T08:31:59;100472.69;;;-7.26;90.42
28588;BME280;15787;49.662;10.162;2024-01-11T08:34:56;100474.56;;;-7.22;90.00
28588;BME280;15787;49.662;10.162;2024-01-11T08:37:29;100472.94;;;-7.18;91.11
28588;BME280;15787;49.662;10.162;2024-01-11T08:40:03;100473.56;;;-6.87;91.52
28588;BME280;15787;49.662;10.162;2024-01-11T08:42:38;100462.06;;;-6.74;92.02
28588;BME280;15787;49.662;10.162;2024-01-11T08:45:12;100456.31;;;-6.67;91.88
28588;BME280;15787;49.662;10.162;2024-01-11T08:47:49;100457.81;;;-6.51;91.99
28588;BME280;15787;49.662;10.162;2024-01-11T08:50:25;100449.53;;;-6.36;91.55
28588;BME280;15787;49.662;10.162;2024-01-11T08:53:00;100448.97;;;-6.09;92.00
28588;BME280;15787;49.662;10.162;2024-01-11T08:55:33;100450.66;;;-5.66;91.16
28588;BME280;15787;49.662;10.162;2024-01-11T08:58:06;100445.78;;;-5.08;91.12
28588;BME280;15787;49.662;10.162;2024-01-11T09:00:38;100437.78;;;-4.99;90.40
28588;BME280;15787;49.662;10.162;2024-01-11T09:03:11;100449.53;;;-4.48;90.26
28588;BME280;15787;49.662;10.162;2024-01-11T09:05:48;100467.06;;;-4.73;89.05
28588;BME280;15787;49.662;10.162;2024-01-11T09:08:21;100462.19;;;-4.57;88.58
28588;BME280;15787;49.662;10.162;2024-01-11T09:10:54;100462.84;;;-4.65;88.60
28588;BME280;15787;49.662;10.162;2024-01-11T09:13:27;100479.19;;;-4.28;87.57
28588;BME280;15787;49.662;10.162;2024-01-11T09:16:01;100475.00;;;-4.39;87.14
28588;BME280;15787;49.662;10.162;2024-01-11T09:18:34;100482.81;;;-4.19;86.67
28588;BME280;15787;49.662;10.162;2024-01-11T09:21:08;100488.47;;;-3.97;86.40
28588;BME280;15787;49.662;10.162;2024-01-11T09:23:41;100492.00;;;-3.83;85.38
28588;BME280;15787;49.662;10.162;2024-01-11T09:26:14;100495.09;;;-3.43;85.19
28588;BME280;15787;49.662;10.162;2024-01-11T09:28:47;100495.88;;;-3.43;84.49
28588;BME280;15787;49.662;10.162;2024-01-11T09:31:20;100505.94;;;-2.89;84.02
28588;BME280;15787;49.662;10.162;2024-01-11T09:33:52;100522.78;;;-2.95;82.90
28588;BME280;15787;49.662;10.162;2024-01-11T09:36:27;100515.59;;;-2.69;82.85
28588;BME280;15787;49.662;10.162;2024-01-11T09:39:00;100511.91;;;-2.51;81.99
28588;BME280;15787;49.662;10.162;2024-01-11T09:41:36;100512.25;;;-2.08;81.04
28588;BME280;15787;49.662;10.162;2024-01-11T09:44:09;100490.56;;;-1.74;80.36
28588;BME280;15787;49.662;10.162;2024-01-11T09:46:42;100479.63;;;-2.27;79.25
28588;BME280;15787;49.662;10.162;2024-01-11T09:49:16;100481.63;;;-2.10;78.30
28588;BME280;15787;49.662;10.162;2024-01-11T09:51:51;100472.09;;;-2.21;78.06
28588;BME280;15787;49.662;10.162;2024-01-11T09:54:25;100457.28;;;-1.59;77.94
28588;BME280;15787;49.662;10.162;2024-01-11T09:56:59;100445.22;;;-0.67;75.90
28588;BME280;15787;49.662;10.162;2024-01-11T09:59:32;100451.28;;;-1.13;75.21
28588;BME280;15787;49.662;10.162;2024-01-11T10:02:10;100461.31;;;-0.40;74.43
28588;BME280;15787;49.662;10.162;2024-01-11T10:04:44;100480.22;;;-0.64;71.98
28588;BME280;15787;49.662;10.162;2024-01-11T10:07:19;100486.94;;;-0.96;72.76
28588;BME280;15787;49.662;10.162;2024-01-11T10:09:54;100507.78;;;-0.78;72.52
28588;BME280;15787;49.662;10.162;2024-01-11T10:12:27;100497.25;;;-1.01;74.10
28588;BME280;15787;49.662;10.162;2024-01-11T10:15:05;100505.50;;;-0.93;74.06
28588;BME280;15787;49.662;10.162;2024-01-11T10:17:42;100498.09;;;-0.92;74.12
28588;BME280;15787;49.662;10.162;2024-01-11T10:20:16;100495.19;;;-0.96;75.38
28588;BME280;15787;49.662;10.162;2024-01-11T10:22:57;100492.59;;;-0.84;74.37
28588;BME280;15787;49.662;10.162;2024-01-11T10:25:31;100486.50;;;-0.72;73.87
28588;BME280;15787;49.662;10.162;2024-01-11T10:28:07;100486.66;;;-0.94;74.23
28588;BME280;15787;49.662;10.162;2024-01-11T10:30:40;100482.44;;;-0.83;73.93
28588;BME280;15787;49.662;10.162;2024-01-11T10:33:13;100480.06;;;-0.33;73.55
28588;BME280;15787;49.662;10.162;2024-01-11T10:35:47;100448.25;;;-0.26;72.67
28588;BME280;15787;49.662;10.162;2024-01-11T10:38:24;100441.31;;;-0.40;72.37
28588;BME280;15787;49.662;10.162;2024-01-11T10:40:59;100446.63;;;-0.35;71.77
28588;BME280;15787;49.662;10.162;2024-01-11T10:43:36;100455.97;;;-0.11;71.35
28588;BME280;15787;49.662;10.162;2024-01-11T10:46:10;100456.00;;;-0.45;71.80
28588;BME280;15787;49.662;10.162;2024-01-11T10:48:46;100462.44;;;-1.09;73.58
28588;BME280;15787;49.662;10.162;2024-01-11T10:51:22;100459.72;;;-0.92;73.58
28588;BME280;15787;49.662;10.162;2024-01-11T10:53:59;100445.19;;;-0.58;74.01
28588;BME280;15787;49.662;10.162;2024-01-11T10:56:34;100434.78;;;-0.02;73.53
28588;BME280;15787;49.662;10.162;2024-01-11T10:59:11;100437.78;;;0.23;72.58
28588;BME280;15787;49.662;10.162;2024-01-11T11:01:45;100430.03;;;0.54;71.13
28588;BME280;15787;49.662;10.162;2024-01-11T11:04:19;100424.41;;;0.50;70.45
28588;BME280;15787;49.662;10.162;2024-01-11T11:06:55;100414.50;;;0.58;69.75
28588;BME280;15787;49.662;10.162;2024-01-11T11:09:30;100421.09;;;-0.19;70.72
28588;BME280;15787;49.662;10.162;2024-01-11T11:12:05;100422.63;;;0.17;71.51
28588;BME280;15787;49.662;10.162;2024-01-11T11:14:40;100428.63;;;0.48;70.83
28588;BME280;15787;49.662;10.162;2024-01-11T11:17:14;100424.09;;;0.43;70.82
28588;BME280;15787;49.662;10.162;2024-01-11T11:19:47;100421.88;;;0.37;70.02
28588;BME280;15787;49.662;10.162;2024-01-11T11:22:20;100417.84;;;0.34;69.67
28588;BME280;15787;49.662;10.162;2024-01-11T11:25:04;100415.34;;;0.79;67.30
28588;BME280;15787;49.662;10.162;2024-01-11T11:27:39;100417.69;;;0.89;67.23
28588;BME280;15787;49.662;10.162;2024-01-11T11:30:13;100413.22;;;1.05;66.02
28588;BME280;15787;49.662;10.162;2024-01-11T11:32:46;100407.72;;;1.05;65.13
28588;BME280;15787;49.662;10.162;2024-01-11T11:35:19;100412.88;;;1.27;64.30
28588;BME280;15787;49.662;10.162;2024-01-11T11:37:55;100407.31;;;1.36;64.25
28588;BME280;15787;49.662;10.162;2024-01-11T11:40:33;100400.72;;;1.49;64.07
28588;BME280;15787;49.662;10.162;2024-01-11T11:43:10;100411.59;;;1.04;65.03
28588;BME280;15787;49.662;10.162;2024-01-11T11:45:46;100414.03;;;0.85;64.58
28588;BME280;15787;49.662;10.162;2024-01-11T11:48:50;100413.09;;;1.22;65.59
28588;BME280;15787;49.662;10.162;2024-01-11T11:51:26;100423.03;;;1.36;65.75
28588;BME280;15787;49.662;10.162;2024-01-11T11:54:01;100424.78;;;1.19;64.95
28588;BME280;15787;49.662;10.162;2024-01-11T11:56:36;100417.66;;;1.18;64.33
28588;BME280;15787;49.662;10.162;2024-01-11T11:59:09;100404.56;;;1.15;63.66
28588;BME280;15787;49.662;10.162;2024-01-11T12:01:43;100395.66;;;1.72;63.56
28588;BME280;15787;49.662;10.162;2024-01-11T12:04:16;100396.06;;;1.95;64.17
28588;BME280;15787;49.662;10.162;2024-01-11T12:06:50;100386.09;;;2.02;63.43
28588;BME280;15787;49.662;10.162;2024-01-11T12:09:23;100382.34;;;2.31;62.90
28588;BME280;15787;49.662;10.162;2024-01-11T12:11:59;100383.94;;;2.32;63.70
28588;BME280;15787;49.662;10.162;2024-01-11T12:14:46;100394.16;;;2.55;63.66
28588;BME280;15787;49.662;10.162;2024-01-11T12:17:19;100389.88;;;2.82;63.15
28588;BME280;15787;49.662;10.162;2024-01-11T12:19:52;100380.78;;;2.94;62.40
28588;BME280;15787;49.662;10.162;2024-01-11T12:22:27;100378.16;;;2.97;62.46
28588;BME280;15787;49.662;10.162;2024-01-11T12:25:01;100377.03;;;2.74;63.16
28588;BME280;15787;49.662;10.162;2024-01-11T12:27:35;100372.00;;;2.28;62.56
28588;BME280;15787;49.662;10.162;2024-01-11T12:30:10;100362.94;;;3.03;61.40
28588;BME280;15787;49.662;10.162;2024-01-11T12:32:46;100358.94;;;3.29;61.10
28588;BME280;15787;49.662;10.162;2024-01-11T12:35:22;100372.16;;;2.95;60.59
28588;BME280;15787;49.662;10.162;2024-01-11T12:37:56;100379.09;;;2.89;60.86
28588;BME280;15787;49.662;10.162;2024-01-11T12:40:32;100362.91;;;2.64;61.77
28588;BME280;15787;49.662;10.162;2024-01-11T12:43:07;100370.66;;;2.98;60.96
28588;BME280;15787;49.662;10.162;2024-01-11T12:45:41;100372.00;;;2.40;61.17
28588;BME280;15787;49.662;10.162;2024-01-11T12:48:15;100361.41;;;2.42;61.35
28588;BME280;15787;49.662;10.162;2024-01-11T12:50:51;100368.84;;;2.78;61.46
28588;BME280;15787;49.662;10.162;2024-01-11T12:53:44;100353.44;;;2.89;59.51
28588;BME280;15787;49.662;10.162;2024-01-11T12:56:18;100359.22;;;2.72;59.33
28588;BME280;15787;49.662;10.162;2024-01-11T12:59:06;100363.13;;;2.71;59.09
28588;BME280;15787;49.662;10.162;2024-01-11T13:01:40;100362.84;;;3.00;60.35
28588;BME280;15787;49.662;10.162;2024-01-11T13:04:13;100350.25;;;2.63;59.88
28588;BME280;15787;49.662;10.162;2024-01-11T13:06:46;100350.16;;;2.71;60.59
28588;BME280;15787;49.662;10.162;2024-01-11T13:09:20;100350.59;;;2.73;59.93
28588;BME280;15787;49.662;10.162;2024-01-11T13:11:53;100348.38;;;2.91;59.52
28588;BME280;15787;49.662;10.162;2024-01-11T13:14:27;100353.25;;;2.70;59.05
28588;BME280;15787;49.662;10.162;2024-01-11T13:17:03;100346.13;;;2.44;59.85